Pagina principale
METAR-TAF:

METAR-TAF

Aeroporti :

Aeroporto di Guidonia

Guidonia Montecelio, Italia

latitudine: 42-00N, longitudine: 012-44E, altezza: 88 m

Osservazione

Il bollettino è stato emesso 7 ore e 31 minuti fa, alle 17:55 UTC
Vento 5 kt da nord/nord-est
Temperature 27°C
Umidità 62%
Pressione 1014 hPa
Visibilità 10 km o più
Poco nuvoloso ad un'altezza di 3000 ft

METAR: LIRG 141755Z 02005KT 9999 FEW030 27/19 Q1014 RMK BKN SCT060 MON NE LIB NC VIS MIN 9999 YLO

Ora: 03:26 (01:26 UTC)

Previsione

Il bollettino è stato emesso 11 ore e 26 minuti fa, alle 14:00 UTC
Previsione valida dal 14 alle 15 UTC al 14 alle 24 UTC
Vento 12 kt da ovest
Visibilità 10 km o più
Nubi sparse ad un'altezza di 3000 ft

TAF: LIRG 141400Z 1415/1424 26012KT 9999 SCT030

Osservazioni e previsioni meteorologiche di più di 4000 aeroporti (messaggi METAR e TAF).

Le stazioni disponibili sono rappresentate dai dischi gialli e rossi sulla carta.

Puntare il mouse per vedere il nome della stazione.

Clicca sopra per visualizzare le osservazioni e previsioni meteorologiche.

Per cambiare la mappa : fare clic sui pulsanti verdi con una croce nera per ingrandire, il pulsante verde con un trattino per diminuire, o sulla freccia verde per le mappe adiacenti.


METAR-TAF: